DAUH

Oued Irara Airport

Hassi Messaoud, Algeria
METAR DAUH 161400Z 21013KT 9999 SCT040 18/12 Q1014
Observed Flight Rules
Dec-16 @ 14:00 UTC (43 minutes ago) Visual Flight Rules
Wind Visibility Clouds
210° at 13 knots 10,000+ meters
  • Scattered at 4,000' AGL
Temperatures Readings
Current 18°C / 64°F
Dewpoint 12°C / 54°F
Humidity 68%
Altimeter 29.94" Hg
Pressure 1014 hPa
Elevation 142
METAR DAUH 161400Z 21013KT 9999 SCT040 18/12 Q1014
Observed Flight Rules
Dec-16 @ 14:00 UTC
(43 minutes ago)
VFR
Wind Visibility
210° at 13 knots 10,000+ meters
Clouds
  • Scattered at 4,000' AGL
Temperature Dewpoint
18°C / 64°F 12°C / 54°F
Humidity Altimeter Pressure
68% 29.94" Hg 1014 hPa